Time;durP1;ratioP1;P1;durP2;ratioP2;P2;SDS_P1;SDS_P2;PMS_P1;PMS_P2;Temp;Humidity;BMP_temperature;BMP_pressure;BME280_temperature;BME280_humidity;BME280_pressure;Samples;Min_cycle;Max_cycle;Signal;HPM_P1;HPM_P2
2021/04/01 00:00:06;;;;;;;54.85;29.77;;;;;;;;;;10288261;28;20033;-64
2021/04/01 00:05:04;;;;;;;51.90;29.00;;;;;;;;;;10293060;28;20038;-64
2021/04/01 00:10:05;;;;;;;54.83;29.40;;;;;;;;;;10291956;28;20205;-65
2021/04/01 00:15:04;;;;;;;52.72;28.77;;;;;;;;;;10290672;28;20137;-64
2021/04/01 00:20:03;;;;;;;57.88;30.73;;;;;;;;;;10294469;28;20095;-64
2021/04/01 00:25:01;;;;;;;61.10;30.90;;;;;;;;;;10294845;28;20046;-65
2021/04/01 00:29:58;;;;;;;79.30;41.23;;;;;;;;;;10286201;28;20050;-64
2021/04/01 00:34:56;;;;;;;81.97;40.20;;;;;;;;;;10276423;28;20044;-64
2021/04/01 00:39:53;;;;;;;84.27;42.33;;;;;;;;;;10300223;28;20045;-63
2021/04/01 00:44:51;;;;;;;83.03;42.27;;;;;;;;;;10276242;28;20049;-63
2021/04/01 00:49:48;;;;;;;83.93;42.10;;;;;;;;;;10297704;28;20033;-64
2021/04/01 00:54:46;;;;;;;77.77;40.20;;;;;;;;;;10293858;28;20117;-65
2021/04/01 00:59:43;;;;;;;72.53;39.07;;;;;;;;;;10282518;28;20280;-66
2021/04/01 01:04:41;;;;;;;72.00;40.07;;;;;;;;;;10280918;28;20037;-67
2021/04/01 01:09:38;;;;;;;79.00;43.97;;;;;;;;;;10286571;28;20044;-66
2021/04/01 01:14:35;;;;;;;75.43;40.90;;;;;;;;;;10292677;28;20286;-66
2021/04/01 01:19:37;;;;;;;78.40;40.17;;;;;;;;;;10289852;28;20033;-64
2021/04/01 01:24:35;;;;;;;84.20;39.97;;;;;;;;;;10281499;28;20508;-66
2021/04/01 01:29:33;;;;;;;72.80;34.73;;;;;;;;;;10291903;28;20532;-65
2021/04/01 01:34:30;;;;;;;80.47;37.93;;;;;;;;;;10272437;28;20307;-65
2021/04/01 01:39:27;;;;;;;84.07;38.67;;;;;;;;;;10287596;28;20506;-65
2021/04/01 01:44:25;;;;;;;96.03;47.97;;;;;;;;;;10291619;28;20037;-65
2021/04/01 01:49:23;;;;;;;47.47;22.57;;;;;;;;;;10293082;28;20029;-65
2021/04/01 01:54:20;;;;;;;83.13;41.93;;;;;;;;;;10285700;28;20033;-64
2021/04/01 01:59:17;;;;;;;77.60;37.53;;;;;;;;;;10289204;28;20038;-65
2021/04/01 02:04:15;;;;;;;82.60;35.23;;;;;;;;;;10275731;28;20042;-65
2021/04/01 02:09:12;;;;;;;87.50;41.40;;;;;;;;;;10294790;28;20072;-65
2021/04/01 02:14:10;;;;;;;79.27;39.67;;;;;;;;;;10289536;28;20036;-65
2021/04/01 02:19:07;;;;;;;87.50;43.70;;;;;;;;;;10296122;28;20090;-65
2021/04/01 02:24:05;;;;;;;78.80;37.87;;;;;;;;;;10288122;28;20033;-66
2021/04/01 02:29:02;;;;;;;89.97;44.33;;;;;;;;;;10275504;28;20055;-66
2021/04/01 02:34:00;;;;;;;94.03;46.23;;;;;;;;;;10297457;28;20030;-65
2021/04/01 02:38:57;;;;;;;80.63;36.63;;;;;;;;;;10286722;28;20041;-65
2021/04/01 02:43:55;;;;;;;53.00;22.10;;;;;;;;;;10296540;28;20316;-65
2021/04/01 02:48:52;;;;;;;72.50;28.87;;;;;;;;;;10289068;28;20495;-63
2021/04/01 02:53:49;;;;;;;96.70;41.50;;;;;;;;;;10294536;28;20030;-65
2021/04/01 02:58:47;;;;;;;90.90;39.23;;;;;;;;;;10295423;28;20129;-66
2021/04/01 03:03:47;;;;;;;58.00;25.37;;;;;;;;;;10288285;28;20577;-64
2021/04/01 03:08:44;;;;;;;89.10;44.47;;;;;;;;;;10303168;28;20073;-64
2021/04/01 03:13:42;;;;;;;88.93;39.93;;;;;;;;;;10298047;28;20033;-64
2021/04/01 03:18:40;;;;;;;63.03;27.60;;;;;;;;;;10283730;28;20045;-65
2021/04/01 03:23:37;;;;;;;87.47;42.10;;;;;;;;;;10292479;28;20120;-64
2021/04/01 03:28:34;;;;;;;87.73;36.57;;;;;;;;;;10297057;28;20030;-64
2021/04/01 03:33:32;;;;;;;58.77;25.07;;;;;;;;;;10288739;28;20030;-65
2021/04/01 03:38:29;;;;;;;87.80;36.50;;;;;;;;;;10299742;28;20128;-62
2021/04/01 03:43:27;;;;;;;87.90;39.87;;;;;;;;;;10296051;28;20032;-63
2021/04/01 03:48:24;;;;;;;87.67;35.60;;;;;;;;;;10293069;28;20037;-62
2021/04/01 03:53:22;;;;;;;98.87;43.90;;;;;;;;;;10290459;28;20036;-63
2021/04/01 04:18:30;;;;;;;51.05;17.83;;;;;;;;;;10295311;28;20419;-65
2021/04/01 04:23:28;;;;;;;41.13;15.27;;;;;;;;;;10270724;28;20053;-64
2021/04/01 04:28:31;;;;;;;48.43;19.73;;;;;;;;;;10269575;28;20030;-66
2021/04/01 04:33:29;;;;;;;61.42;25.35;;;;;;;;;;10293678;28;20134;-64
2021/04/01 04:38:27;;;;;;;62.08;26.80;;;;;;;;;;10292319;28;20040;-64
2021/04/01 04:43:25;;;;;;;72.17;27.33;;;;;;;;;;10283682;28;20029;-66
2021/04/01 04:48:23;;;;;;;73.90;31.75;;;;;;;;;;10272474;28;20296;-64
2021/04/01 04:53:20;;;;;;;92.30;39.67;;;;;;;;;;10256463;28;20034;-64
2021/04/01 04:58:23;;;;;;;66.97;27.03;;;;;;;;;;10289097;28;20029;-63
2021/04/01 05:08:37;;;;;;;67.18;24.48;;;;;;;;;;10283716;28;20562;-64
2021/04/01 05:13:35;;;;;;;53.17;23.00;;;;;;;;;;10290160;28;20419;-64
2021/04/01 05:18:32;;;;;;;56.37;22.00;;;;;;;;;;10291451;28;20701;-64
2021/04/01 05:28:34;;;;;;;47.13;14.50;;;;;;;;;;10285085;28;20041;-61
2021/04/01 05:33:37;;;;;;;28.85;12.10;;;;;;;;;;10295826;28;20422;-61
2021/04/01 05:38:35;;;;;;;29.20;10.30;;;;;;;;;;10294098;28;20562;-60
2021/04/01 05:43:36;;;;;;;22.45;8.15;;;;;;;;;;10281675;28;20037;-62
2021/04/01 05:59:32;;;;;;;8.35;2.92;;;;;;;;;;10257551;28;20208;-63
2021/04/01 06:04:40;;;;;;;11.88;2.72;;;;;;;;;;10285721;28;20397;-59
2021/04/01 06:09:45;;;;;;;4.10;0.98;;;;;;;;;;10278224;28;20045;-62
2021/04/01 06:14:48;;;;;;;5.07;1.05;;;;;;;;;;10286643;28;20120;-62
2021/04/01 06:19:47;;;;;;;6.28;1.33;;;;;;;;;;10277906;28;20132;-63
2021/04/01 06:24:44;;;;;;;;;;;;;;;;;;10278029;28;20030;-62
2021/04/01 06:30:10;;;;;;;8.27;2.07;;;;;;;;;;10282572;28;20299;-61
2021/04/01 06:35:21;;;;;;;6.10;1.92;;;;;;;;;;10282547;28;20364;-61
2021/04/01 06:40:18;;;;;;;9.27;1.98;;;;;;;;;;10277769;28;20348;-62
2021/04/01 06:45:17;;;;;;;12.27;2.43;;;;;;;;;;10287779;28;20041;-60
2021/04/01 06:50:21;;;;;;;9.43;2.10;;;;;;;;;;10264353;28;20037;-62
2021/04/01 06:55:26;;;;;;;13.95;2.40;;;;;;;;;;10280426;28;20069;-61
2021/04/01 07:05:36;;;;;;;6.30;1.67;;;;;;;;;;10290708;28;20117;-62
2021/04/01 07:15:44;;;;;;;7.68;1.85;;;;;;;;;;10289368;28;20045;-64
2021/04/01 07:46:36;;;;;;;7.30;1.88;;;;;;;;;;10278913;28;20115;-63
2021/04/01 07:56:58;;;;;;;2.90;1.05;;;;;;;;;;10284101;28;20101;-65
2021/04/01 08:07:16;;;;;;;5.07;1.67;;;;;;;;;;10258639;28;20033;-63
2021/04/01 08:12:29;;;;;;;3.53;1.33;;;;;;;;;;10291057;28;20079;-63
2021/04/01 08:17:30;;;;;;;3.75;1.10;;;;;;;;;;10292356;28;20033;-60
2021/04/01 08:22:30;;;;;;;4.47;1.05;;;;;;;;;;10268816;28;20034;-63
2021/04/01 08:27:38;;;;;;;3.72;0.88;;;;;;;;;;10282078;28;20041;-63
2021/04/01 08:43:09;;;;;;;2.00;0.80;;;;;;;;;;10258294;28;20041;-62
2021/04/01 08:48:25;;;;;;;4.30;0.90;;;;;;;;;;10254327;28;20037;-60
2021/04/01 08:53:37;;;;;;;4.60;1.33;;;;;;;;;;10246331;28;20052;-61
2021/04/01 08:58:41;;;;;;;3.58;1.20;;;;;;;;;;10256196;28;20041;-61
2021/04/01 09:03:39;;;;;;;4.03;1.20;;;;;;;;;;10255788;28;20026;-61
2021/04/01 09:08:40;;;;;;;1.38;0.50;;;;;;;;;;10241417;28;20077;-60
2021/04/01 09:13:45;;;;;;;2.45;0.70;;;;;;;;;;10247425;28;20132;-62
2021/04/01 09:18:44;;;;;;;3.40;0.73;;;;;;;;;;10253434;28;20041;-63
2021/04/01 09:23:43;;;;;;;4.50;0.65;;;;;;;;;;10237072;28;20498;-61
2021/04/01 09:28:42;;;;;;;2.30;0.70;;;;;;;;;;10252205;28;20095;-66
2021/04/01 09:33:40;;;;;;;4.93;1.27;;;;;;;;;;10259215;28;20045;-63
2021/04/01 09:38:39;;;;;;;4.28;1.08;;;;;;;;;;10256626;28;20054;-62
2021/04/01 09:43:48;;;;;;;2.63;0.70;;;;;;;;;;10255428;28;20411;-62
2021/04/01 09:48:45;;;;;;;;;;;;;;;;;;10247101;28;20025;-62
2021/04/01 09:53:49;;;;;;;2.20;0.82;;;;;;;;;;10259829;28;20372;-62
2021/04/01 09:58:47;;;;;;;2.05;0.30;;;;;;;;;;10245772;28;20049;-62
2021/04/01 10:03:45;;;;;;;;;;;;;;;;;;10254791;28;20136;-62
2021/04/01 10:08:42;;;;;;;1.65;0.40;;;;;;;;;;10252733;28;20427;-62
2021/04/01 10:13:39;;;;;;;1.10;0.63;;;;;;;;;;10237074;28;20046;-62
2021/04/01 10:18:39;;;;;;;4.70;0.60;;;;;;;;;;10247027;28;20058;-60
2021/04/01 10:23:44;;;;;;;2.78;0.52;;;;;;;;;;10257863;28;20033;-62
2021/04/01 10:29:10;;;;;;;0.57;0.30;;;;;;;;;;10262591;28;20086;-61
2021/04/01 10:34:08;;;;;;;1.55;0.20;;;;;;;;;;10249705;28;20052;-62
2021/04/01 10:39:10;;;;;;;0.40;0.27;;;;;;;;;;10248628;28;20065;-63
2021/04/01 10:44:09;;;;;;;4.32;0.70;;;;;;;;;;10253452;28;20038;-61
2021/04/01 10:49:07;;;;;;;3.15;0.50;;;;;;;;;;10250567;28;21683;-62
2021/04/01 10:54:08;;;;;;;3.40;0.40;;;;;;;;;;10246568;28;20052;-63
2021/04/01 10:59:06;;;;;;;1.95;0.35;;;;;;;;;;10231064;28;20038;-63
2021/04/01 11:04:05;;;;;;;2.67;0.40;;;;;;;;;;10257128;28;20050;-63
2021/04/01 11:09:03;;;;;;;0.70;0.32;;;;;;;;;;10237003;28;20677;-62
2021/04/01 11:14:00;;;;;;;0.50;0.33;;;;;;;;;;10243463;28;20042;-62
2021/04/01 11:18:59;;;;;;;2.57;0.60;;;;;;;;;;10240466;28;20779;-63
2021/04/01 11:23:56;;;;;;;4.28;0.80;;;;;;;;;;10241585;28;20072;-60
2021/04/01 11:28:54;;;;;;;4.27;1.03;;;;;;;;;;10260865;28;20076;-61
2021/04/01 11:33:52;;;;;;;0.60;0.40;;;;;;;;;;10247915;28;20056;-63
2021/04/01 11:39:03;;;;;;;3.30;0.68;;;;;;;;;;10270143;28;20053;-67
2021/04/01 11:44:00;;;;;;;5.07;0.75;;;;;;;;;;10254182;28;20056;-64
2021/04/01 11:48:59;;;;;;;3.93;1.00;;;;;;;;;;10255832;28;20542;-62
2021/04/01 11:53:56;;;;;;;3.63;0.93;;;;;;;;;;10271483;28;20052;-62
2021/04/01 11:58:54;;;;;;;2.80;0.20;;;;;;;;;;10270127;28;20041;-61
2021/04/01 12:08:56;;;;;;;0.98;0.30;;;;;;;;;;10271067;28;20124;-62
2021/04/01 12:13:53;;;;;;;;;;;;;;;;;;10270740;28;20680;-63
2021/04/01 12:18:51;;;;;;;1.40;0.17;;;;;;;;;;10273372;28;19921;-62
2021/04/01 12:23:51;;;;;;;3.50;0.30;;;;;;;;;;10259194;28;20037;-61
2021/04/01 12:28:58;;;;;;;3.47;0.60;;;;;;;;;;10275335;28;20037;-61
2021/04/01 12:33:56;;;;;;;3.50;1.13;;;;;;;;;;10264334;28;20694;-61
2021/04/01 12:38:53;;;;;;;1.40;0.83;;;;;;;;;;10220171;28;20127;-64
2021/04/01 12:43:51;;;;;;;2.37;0.73;;;;;;;;;;10257841;28;20188;-63
2021/04/01 12:48:48;;;;;;;3.13;0.70;;;;;;;;;;10263974;28;20026;-62
2021/04/01 12:54:04;;;;;;;4.07;1.00;;;;;;;;;;10255318;28;20044;-62
2021/04/01 12:59:17;;;;;;;3.28;1.05;;;;;;;;;;10256944;28;20033;-62
2021/04/01 13:04:18;;;;;;;2.92;1.35;;;;;;;;;;10239186;28;20599;-61
2021/04/01 13:14:13;;;;;;;5.77;1.60;;;;;;;;;;10256333;28;20088;-62
2021/04/01 13:19:11;;;;;;;2.17;1.03;;;;;;;;;;10262310;28;20507;-63
2021/04/01 13:29:27;;;;;;;1.80;1.65;;;;;;;;;;10255375;28;20316;-63
2021/04/01 13:39:53;;;;;;;2.08;1.00;;;;;;;;;;10222180;28;20068;-63
2021/04/01 13:44:54;;;;;;;1.67;0.65;;;;;;;;;;10253550;28;20045;-60
2021/04/01 13:49:54;;;;;;;2.60;0.75;;;;;;;;;;10241063;28;21226;-65
2021/04/01 14:00:14;;;;;;;2.13;0.50;;;;;;;;;;10249785;28;20041;-66
2021/04/01 14:10:41;;;;;;;1.40;0.70;;;;;;;;;;10206021;28;20403;-65
2021/04/01 14:15:38;;;;;;;12.43;1.97;;;;;;;;;;10306910;23;20044;-67
2021/04/01 14:20:36;;;;;;;0.90;0.70;;;;;;;;;;10300393;28;20052;-67
2021/04/01 14:25:41;;;;;;;2.50;0.80;;;;;;;;;;10327003;28;20033;-68
2021/04/01 14:30:38;;;;;;;3.25;0.85;;;;;;;;;;10319808;28;20170;-67
2021/04/01 14:35:36;;;;;;;3.73;0.27;;;;;;;;;;10321818;28;20074;-67
2021/04/01 14:40:59;;;;;;;1.67;0.67;;;;;;;;;;10309572;28;20044;-67
2021/04/01 14:45:52;;;;;;;7.15;1.42;;;;;;;;;;10315343;28;20505;-67
2021/04/01 14:50:50;;;;;;;2.55;1.00;;;;;;;;;;10317772;28;20059;-66
2021/04/01 14:55:47;;;;;;;3.00;0.93;;;;;;;;;;10302447;28;20058;-63
2021/04/01 15:00:46;;;;;;;5.27;1.40;;;;;;;;;;10297636;28;20759;-64
2021/04/01 15:05:44;;;;;;;3.47;0.95;;;;;;;;;;10307260;28;20124;-63
2021/04/01 15:10:42;;;;;;;4.13;0.93;;;;;;;;;;10333973;28;20039;-64
2021/04/01 15:15:41;;;;;;;6.13;1.23;;;;;;;;;;10324051;28;20047;-67
2021/04/01 15:20:38;;;;;;;2.38;0.40;;;;;;;;;;10312085;28;20062;-64
2021/04/01 15:25:35;;;;;;;2.03;0.60;;;;;;;;;;10311795;28;20039;-64
2021/04/01 15:30:33;;;;;;;5.67;1.57;;;;;;;;;;10309677;28;20044;-64
2021/04/01 15:35:31;;;;;;;3.20;0.93;;;;;;;;;;10324268;28;20047;-65
2021/04/01 15:40:28;;;;;;;1.90;0.38;;;;;;;;;;10333086;28;20519;-67
2021/04/01 15:45:26;;;;;;;11.60;1.83;;;;;;;;;;10311153;28;20045;-65
2021/04/01 15:50:24;;;;;;;6.00;0.57;;;;;;;;;;10321012;28;20037;-66
2021/04/01 15:55:21;;;;;;;3.83;1.17;;;;;;;;;;10309845;28;20792;-65
2021/04/01 16:00:19;;;;;;;4.43;0.73;;;;;;;;;;10290883;28;20547;-65
2021/04/01 16:05:16;;;;;;;2.87;0.50;;;;;;;;;;10298081;28;20029;-66
2021/04/01 16:10:14;;;;;;;10.57;1.43;;;;;;;;;;10283668;28;20469;-65
2021/04/01 16:15:11;;;;;;;1.60;0.77;;;;;;;;;;10313939;28;20419;-67
2021/04/01 16:20:09;;;;;;;5.87;0.93;;;;;;;;;;10309950;28;20490;-65
2021/04/01 16:25:06;;;;;;;6.47;1.37;;;;;;;;;;10329792;28;20040;-68
2021/04/01 16:30:05;;;;;;;11.80;1.60;;;;;;;;;;10297546;28;20082;-67
2021/04/01 16:35:02;;;;;;;4.28;0.65;;;;;;;;;;10310920;28;20022;-66
2021/04/01 16:40:00;;;;;;;4.40;0.87;;;;;;;;;;10310903;28;20033;-66
2021/04/01 16:44:57;;;;;;;1.33;0.70;;;;;;;;;;10289615;28;20037;-66
2021/04/01 16:49:55;;;;;;;8.70;1.33;;;;;;;;;;10289210;28;20569;-66
2021/04/01 16:54:53;;;;;;;5.00;1.37;;;;;;;;;;10316420;28;20029;-66
2021/04/01 16:59:51;;;;;;;0.98;0.68;;;;;;;;;;10273929;28;20456;-65
2021/04/01 17:04:50;;;;;;;2.83;0.98;;;;;;;;;;10302628;28;20036;-64
2021/04/01 17:09:48;;;;;;;7.55;1.15;;;;;;;;;;10321746;28;20064;-67
2021/04/01 17:14:45;;;;;;;3.03;1.43;;;;;;;;;;10312164;28;20124;-66
2021/04/01 17:19:48;;;;;;;3.13;0.75;;;;;;;;;;10308511;28;20047;-66
2021/04/01 17:24:46;;;;;;;5.30;1.00;;;;;;;;;;10335763;28;20027;-65
2021/04/01 17:29:43;;;;;;;3.00;1.07;;;;;;;;;;10325944;28;20044;-67
2021/04/01 17:34:41;;;;;;;3.30;0.77;;;;;;;;;;10326292;28;20040;-67
2021/04/01 17:39:38;;;;;;;0.50;0.47;;;;;;;;;;10293772;28;20033;-67
2021/04/01 17:44:36;;;;;;;3.50;0.80;;;;;;;;;;10283948;28;20530;-65
2021/04/01 17:49:33;;;;;;;1.77;0.50;;;;;;;;;;10290845;28;20040;-66
2021/04/01 17:54:32;;;;;;;9.07;1.17;;;;;;;;;;10309564;28;20443;-65
2021/04/01 17:59:45;;;;;;;;;;;;;;;;;;10296903;28;20048;-67
2021/04/01 18:04:55;;;;;;;5.68;0.90;;;;;;;;;;10288663;28;19912;-65
2021/04/01 18:25:49;;;;;;;10.93;1.17;;;;;;;;;;10329402;28;20033;-66
2021/04/01 18:30:49;;;;;;;2.05;0.70;;;;;;;;;;10313475;28;20068;-65
2021/04/01 18:40:58;;;;;;;6.47;0.98;;;;;;;;;;10293454;28;20053;-65
2021/04/01 18:46:20;;;;;;;9.75;1.17;;;;;;;;;;10301657;28;20032;-66
2021/04/01 18:51:15;;;;;;;5.00;0.95;;;;;;;;;;10319108;28;20545;-65
2021/04/01 18:56:26;;;;;;;11.32;1.70;;;;;;;;;;10296300;28;20179;-65
2021/04/01 19:06:49;;;;;;;4.18;1.23;;;;;;;;;;10293806;28;20041;-63
2021/04/01 19:22:21;;;;;;;3.30;1.05;;;;;;;;;;10310417;28;20045;-62
2021/04/01 19:27:20;;;;;;;3.05;0.80;;;;;;;;;;10292030;28;20029;-62
2021/04/01 19:32:17;;;;;;;;;;;;;;;;;;10289090;28;20033;-63
2021/04/01 19:37:16;;;;;;;5.07;0.85;;;;;;;;;;10273403;28;19909;-64
2021/04/01 19:42:14;;;;;;;6.80;1.55;;;;;;;;;;10278959;28;21858;-61
2021/04/01 19:47:12;;;;;;;3.05;0.82;;;;;;;;;;10285457;28;20079;-64
2021/04/01 19:52:10;;;;;;;2.90;1.53;;;;;;;;;;10315691;28;21512;-65
2021/04/01 19:57:10;;;;;;;5.13;1.58;;;;;;;;;;10297080;28;20035;-64
2021/04/01 20:02:10;;;;;;;4.43;1.17;;;;;;;;;;10296859;28;20026;-65
2021/04/01 20:07:07;;;;;;;3.17;1.17;;;;;;;;;;10304552;28;20076;-64
2021/04/01 20:12:06;;;;;;;7.40;2.13;;;;;;;;;;10297118;28;20147;-64
2021/04/01 20:17:04;;;;;;;9.70;1.17;;;;;;;;;;10293590;28;20036;-65
2021/04/01 20:22:01;;;;;;;2.93;0.60;;;;;;;;;;10310727;28;20025;-64
2021/04/01 20:26:59;;;;;;;7.20;1.20;;;;;;;;;;10332958;28;20029;-65
2021/04/01 20:31:56;;;;;;;5.97;1.47;;;;;;;;;;10300639;28;20036;-64
2021/04/01 20:36:53;;;;;;;2.63;0.73;;;;;;;;;;10329820;28;20117;-64
2021/04/01 20:41:51;;;;;;;8.53;1.30;;;;;;;;;;10309490;28;20041;-64
2021/04/01 20:46:48;;;;;;;1.57;0.60;;;;;;;;;;10313133;28;20052;-65
2021/04/01 20:51:46;;;;;;;9.80;0.77;;;;;;;;;;10313461;28;20028;-64
2021/04/01 20:56:43;;;;;;;3.83;0.77;;;;;;;;;;10307484;28;20028;-64
2021/04/01 21:01:40;;;;;;;10.77;1.20;;;;;;;;;;10293074;28;20049;-63
2021/04/01 21:06:38;;;;;;;1.57;0.60;;;;;;;;;;10307276;28;20043;-65
2021/04/01 21:11:36;;;;;;;9.03;1.33;;;;;;;;;;10330833;28;20499;-65
2021/04/01 21:16:33;;;;;;;11.33;1.47;;;;;;;;;;10336171;28;20403;-64
2021/04/01 21:21:30;;;;;;;3.20;0.50;;;;;;;;;;10319732;28;20040;-64
2021/04/01 21:26:28;;;;;;;3.20;0.37;;;;;;;;;;10322689;28;20049;-65
2021/04/01 21:31:25;;;;;;;4.67;1.00;;;;;;;;;;10336904;28;20095;-62
2021/04/01 21:36:23;;;;;;;0.20;0.20;;;;;;;;;;10302719;28;20052;-64
2021/04/01 21:41:20;;;;;;;11.67;1.10;;;;;;;;;;10334423;28;20041;-65
2021/04/01 21:46:18;;;;;;;7.13;0.97;;;;;;;;;;10321959;28;20059;-64
2021/04/01 21:51:15;;;;;;;2.43;0.83;;;;;;;;;;10298957;28;20128;-64
2021/04/01 21:56:13;;;;;;;4.70;1.07;;;;;;;;;;10304038;28;20121;-62
2021/04/01 22:01:10;;;;;;;1.50;0.73;;;;;;;;;;10298794;28;20041;-64
2021/04/01 22:06:07;;;;;;;4.57;1.57;;;;;;;;;;10295704;28;20033;-64
2021/04/01 22:11:06;;;;;;;17.13;1.73;;;;;;;;;;10308066;28;20036;-64
2021/04/01 22:16:04;;;;;;;3.08;1.33;;;;;;;;;;10338214;28;20045;-64
2021/04/01 22:21:02;;;;;;;5.77;0.87;;;;;;;;;;10330998;28;20044;-65
2021/04/01 22:26:00;;;;;;;8.00;1.83;;;;;;;;;;10304571;28;20090;-65
2021/04/01 22:30:59;;;;;;;4.67;1.07;;;;;;;;;;10297382;28;20083;-65
2021/04/01 22:35:57;;;;;;;9.98;1.27;;;;;;;;;;10322899;28;20052;-65
2021/04/01 22:40:54;;;;;;;5.23;1.00;;;;;;;;;;10298397;28;20026;-66
2021/04/01 22:45:52;;;;;;;4.07;1.47;;;;;;;;;;10318145;28;20404;-64
2021/04/01 22:50:49;;;;;;;10.17;1.13;;;;;;;;;;10299427;28;20544;-65
2021/04/01 22:55:47;;;;;;;6.93;1.17;;;;;;;;;;10312588;28;20040;-66
2021/04/01 23:00:45;;;;;;;10.27;1.23;;;;;;;;;;10270089;28;20434;-64
2021/04/01 23:05:44;;;;;;;2.85;0.90;;;;;;;;;;10313311;28;20041;-65
2021/04/01 23:10:42;;;;;;;1.50;1.05;;;;;;;;;;10322259;28;20588;-65
2021/04/01 23:15:44;;;;;;;6.80;1.77;;;;;;;;;;10306441;28;20048;-64
2021/04/01 23:20:41;;;;;;;3.50;0.73;;;;;;;;;;10315690;28;20593;-63
2021/04/01 23:25:39;;;;;;;4.23;1.50;;;;;;;;;;10303043;28;20036;-65
2021/04/01 23:30:38;;;;;;;1.30;0.93;;;;;;;;;;10328531;28;20127;-64
2021/04/01 23:35:39;;;;;;;4.70;1.30;;;;;;;;;;10306976;28;20032;-64
2021/04/01 23:40:37;;;;;;;4.68;0.93;;;;;;;;;;10280327;28;20141;-64
2021/04/01 23:45:42;;;;;;;9.32;1.05;;;;;;;;;;10300402;28;20042;-63
2021/04/01 23:50:47;;;;;;;6.93;1.05;;;;;;;;;;10295978;28;20392;-64
2021/04/01 23:55:45;;;;;;;8.43;1.23;;;;;;;;;;10325526;28;20102;-63
